PWSweather.com
Personal Weather Stations
Station Observations
KTXPLANO70
Kemper Estates, Plano, TX

Kemper EstatesPlano, TX

Lat: 33.0674, Lon: -96.7659

Elevation: 737

Station Type: Davis Vantage Pro2

http://www.dallasdawg.com

High Low Average
Temperature 48.3°F9.1°C 37.3°F2.9°C 42.8°F6.0°C
Dew Point 43.6°F6.4°C 35.4°F1.9°C 40.5°F4.7°C
Winds 9.2 mph 14.8 kmh Calm Calm 5.0 mph E8.0 kmh E
Wind Gusts 16.1 mph25.9 kmh -- 7.0 mph11.3 kmh
Humidity 98% 83% 92%
Pressure 30.23 in1023.7 mb 30.05 in1017.6 mb -
Precipitation 0.00 in0.0 mm - -
Hour Temp Dew Point Humidity Winds Wind Gusts Pressure Precip Precip Rate Daily Precip Total
12:00 AM 42.2°F5.7°C 38.6°F3.7°C 87% 1.2 mph NW1.9 kmh NW 2.3 mph3.7 kmh 30.21 in1023.0 mb - 0.00 in0.0 mm 0.00 in0.0 mm
12:05 AM 42.3°F5.7°C 38.4°F3.6°C 86% 1.2 mph NW1.9 kmh NW 1.2 mph1.9 kmh 30.21 in1023.0 mb - 0.00 in0.0 mm 0.00 in0.0 mm
12:10 AM 42.1°F5.6°C 38.3°F3.5°C 86% 1.2 mph NW1.9 kmh NW 1.2 mph1.9 kmh 30.22 in1023.4 mb - 0.00 in0.0 mm 0.00 in0.0 mm
12:15 AM 42.1°F5.6°C 38.2°F3.4°C 86% 1.2 mph NW1.9 kmh NW 2.3 mph3.7 kmh 30.22 in1023.4 mb - 0.00 in0.0 mm 0.00 in0.0 mm
12:20 AM 41.8°F5.4°C 37.9°F3.3°C 86% Calm Calm -- 30.22 in1023.4 mb - 0.00 in0.0 mm 0.00 in0.0 mm
12:25 AM 41.6°F5.3°C 38.0°F3.3°C 87% Calm Calm 1.2 mph1.9 kmh 30.22 in1023.4 mb - 0.00 in0.0 mm 0.00 in0.0 mm
12:30 AM 41.6°F5.3°C 38.0°F3.3°C 87% Calm Calm 1.2 mph1.9 kmh 30.22 in1023.4 mb - 0.00 in0.0 mm 0.00 in0.0 mm
12:35 AM 41.3°F5.2°C 37.7°F3.2°C 87% Calm Calm 1.2 mph1.9 kmh 30.22 in1023.4 mb - 0.00 in0.0 mm 0.00 in0.0 mm
12:40 AM 41.3°F5.2°C 38.0°F3.3°C 88% 1.2 mph NW1.9 kmh NW 2.3 mph3.7 kmh 30.22 in1023.4 mb - 0.00 in0.0 mm 0.00 in0.0 mm
12:45 AM 41.2°F5.1°C 37.9°F3.3°C 88% 1.2 mph NW1.9 kmh NW 3.5 mph5.6 kmh 30.22 in1023.4 mb - 0.00 in0.0 mm 0.00 in0.0 mm
12:50 AM 41.0°F5.0°C 37.7°F3.2°C 88% 1.2 mph NW1.9 kmh NW 2.3 mph3.7 kmh 30.22 in1023.4 mb - 0.00 in0.0 mm 0.00 in0.0 mm
12:55 AM 40.9°F4.9°C 37.3°F2.9°C 87% 2.3 mph N3.7 kmh N 3.5 mph5.6 kmh 30.22 in1023.4 mb - 0.00 in0.0 mm 0.00 in0.0 mm
01:00 AM 40.8°F4.9°C 37.6°F3.1°C 88% 2.3 mph NE3.7 kmh NE 3.5 mph5.6 kmh 30.22 in1023.4 mb - 0.00 in0.0 mm 0.00 in0.0 mm
01:05 AM 40.9°F4.9°C 37.6°F3.1°C 88% 2.3 mph NE3.7 kmh NE 3.5 mph5.6 kmh 30.22 in1023.4 mb - 0.00 in0.0 mm 0.00 in0.0 mm
01:10 AM 40.7°F4.8°C 37.4°F3.0°C 88% 1.2 mph NE1.9 kmh NE 2.3 mph3.7 kmh 30.22 in1023.4 mb - 0.00 in0.0 mm 0.00 in0.0 mm
01:15 AM 40.9°F4.9°C 37.6°F3.1°C 88% 2.3 mph NE3.7 kmh NE 3.5 mph5.6 kmh 30.22 in1023.4 mb - 0.00 in0.0 mm 0.00 in0.0 mm
01:20 AM 41.1°F5.1°C 37.8°F3.2°C 88% 1.2 mph NE1.9 kmh NE 2.3 mph3.7 kmh 30.22 in1023.4 mb - 0.00 in0.0 mm 0.00 in0.0 mm
01:25 AM 40.9°F4.9°C 37.3°F2.9°C 87% 2.3 mph NE3.7 kmh NE 2.3 mph3.7 kmh 30.22 in1023.4 mb - 0.00 in0.0 mm 0.00 in0.0 mm
01:30 AM 40.9°F4.9°C 37.3°F2.9°C 87% 2.3 mph NE3.7 kmh NE 3.5 mph5.6 kmh 30.22 in1023.4 mb - 0.00 in0.0 mm 0.00 in0.0 mm
01:35 AM 41.0°F5.0°C 37.7°F3.2°C 88% 1.2 mph NE1.9 kmh NE 3.5 mph5.6 kmh 30.22 in1023.4 mb - 0.00 in0.0 mm 0.00 in0.0 mm
01:40 AM 41.1°F5.1°C 37.8°F3.2°C 88% 2.3 mph NE3.7 kmh NE 2.3 mph3.7 kmh 30.22 in1023.4 mb - 0.00 in0.0 mm 0.00 in0.0 mm
01:45 AM 41.1°F5.1°C 37.5°F3.1°C 87% 2.3 mph NE3.7 kmh NE 3.5 mph5.6 kmh 30.22 in1023.4 mb - 0.00 in0.0 mm 0.00 in0.0 mm
01:50 AM 41.3°F5.2°C 37.7°F3.2°C 87% 2.3 mph NE3.7 kmh NE 3.5 mph5.6 kmh 30.21 in1023.0 mb - 0.00 in0.0 mm 0.00 in0.0 mm
01:55 AM 41.4°F5.2°C 37.8°F3.2°C 87% 2.3 mph NE3.7 kmh NE 3.5 mph5.6 kmh 30.21 in1023.0 mb - 0.00 in0.0 mm 0.00 in0.0 mm
02:00 AM 41.2°F5.1°C 37.6°F3.1°C 87% 1.2 mph NE1.9 kmh NE 2.3 mph3.7 kmh 30.22 in1023.4 mb - 0.00 in0.0 mm 0.00 in0.0 mm
02:05 AM 41.0°F5.0°C 37.4°F3.0°C 87% 1.2 mph NE1.9 kmh NE 1.2 mph1.9 kmh 30.22 in1023.4 mb - 0.00 in0.0 mm 0.00 in0.0 mm
02:10 AM 40.6°F4.8°C 37.3°F2.9°C 88% 2.3 mph NE3.7 kmh NE 3.5 mph5.6 kmh 30.22 in1023.4 mb - 0.00 in0.0 mm 0.00 in0.0 mm
02:15 AM 40.5°F4.7°C 37.2°F2.9°C 88% 1.2 mph NE1.9 kmh NE 2.3 mph3.7 kmh 30.22 in1023.4 mb - 0.00 in0.0 mm 0.00 in0.0 mm
02:20 AM 40.2°F4.6°C 37.0°F2.8°C 88% 1.2 mph NE1.9 kmh NE 3.5 mph5.6 kmh 30.22 in1023.4 mb - 0.00 in0.0 mm 0.00 in0.0 mm
02:25 AM 40.0°F4.4°C 36.8°F2.7°C 88% 1.2 mph NE1.9 kmh NE 2.3 mph3.7 kmh 30.22 in1023.4 mb - 0.00 in0.0 mm 0.00 in0.0 mm
02:30 AM 40.0°F4.4°C 37.0°F2.8°C 89% 2.3 mph NE3.7 kmh NE 3.5 mph5.6 kmh 30.22 in1023.4 mb - 0.00 in0.0 mm 0.00 in0.0 mm
02:35 AM 40.4°F4.7°C 37.2°F2.9°C 88% 2.3 mph NE3.7 kmh NE 3.5 mph5.6 kmh 30.22 in1023.4 mb - 0.00 in0.0 mm 0.00 in0.0 mm
02:40 AM 40.3°F4.6°C 37.3°F2.9°C 89% 3.5 mph NE5.6 kmh NE 4.6 mph7.4 kmh 30.22 in1023.4 mb - 0.00 in0.0 mm 0.00 in0.0 mm
02:45 AM 40.6°F4.8°C 37.3°F2.9°C 88% 3.5 mph NE5.6 kmh NE 4.6 mph7.4 kmh 30.22 in1023.4 mb - 0.00 in0.0 mm 0.00 in0.0 mm
02:50 AM 40.8°F4.9°C 37.5°F3.1°C 88% 2.3 mph NE3.7 kmh NE 3.5 mph5.6 kmh 30.22 in1023.4 mb - 0.00 in0.0 mm 0.00 in0.0 mm
02:55 AM 40.9°F4.9°C 37.6°F3.1°C 88% 2.3 mph NE3.7 kmh NE 4.6 mph7.4 kmh 30.22 in1023.4 mb - 0.00 in0.0 mm 0.00 in0.0 mm
03:00 AM 41.0°F5.0°C 37.4°F3.0°C 87% 3.5 mph NE5.6 kmh NE 3.5 mph5.6 kmh 30.22 in1023.4 mb - 0.00 in0.0 mm 0.00 in0.0 mm
03:05 AM 40.5°F4.7°C 37.3°F2.9°C 88% 3.5 mph ENE5.6 kmh ENE 4.6 mph7.4 kmh 30.21 in1023.0 mb - 0.00 in0.0 mm 0.00 in0.0 mm
03:10 AM 40.4°F4.7°C 37.1°F2.8°C 88% 3.5 mph NE5.6 kmh NE 4.6 mph7.4 kmh 30.21 in1023.0 mb - 0.00 in0.0 mm 0.00 in0.0 mm
03:15 AM 40.7°F4.8°C 37.4°F3.0°C 88% 3.5 mph NE5.6 kmh NE 4.6 mph7.4 kmh 30.21 in1023.0 mb - 0.00 in0.0 mm 0.00 in0.0 mm
03:20 AM 40.8°F4.9°C 37.2°F2.9°C 87% 2.3 mph NE3.7 kmh NE 4.6 mph7.4 kmh 30.21 in1023.0 mb - 0.00 in0.0 mm 0.00 in0.0 mm
03:25 AM 41.0°F5.0°C 37.4°F3.0°C 87% 2.3 mph NE3.7 kmh NE 4.6 mph7.4 kmh 30.21 in1023.0 mb - 0.00 in0.0 mm 0.00 in0.0 mm
03:30 AM 40.9°F4.9°C 37.3°F2.9°C 87% 3.5 mph NE5.6 kmh NE 4.6 mph7.4 kmh 30.20 in1022.7 mb - 0.00 in0.0 mm 0.00 in0.0 mm
03:35 AM 40.8°F4.9°C 37.2°F2.9°C 87% 2.3 mph ENE3.7 kmh ENE 3.5 mph5.6 kmh 30.21 in1023.0 mb - 0.00 in0.0 mm 0.00 in0.0 mm
03:40 AM 40.7°F4.8°C 37.2°F2.9°C 87% 2.3 mph ENE3.7 kmh ENE 3.5 mph5.6 kmh 30.20 in1022.7 mb - 0.00 in0.0 mm 0.00 in0.0 mm
03:45 AM 40.6°F4.8°C 37.0°F2.8°C 87% 3.5 mph NE5.6 kmh NE 4.6 mph7.4 kmh 30.21 in1023.0 mb - 0.00 in0.0 mm 0.00 in0.0 mm
03:50 AM 40.6°F4.8°C 37.0°F2.8°C 87% 3.5 mph NE5.6 kmh NE 4.6 mph7.4 kmh 30.20 in1022.7 mb - 0.00 in0.0 mm 0.00 in0.0 mm
03:55 AM 40.6°F4.8°C 37.3°F2.9°C 88% 3.5 mph ENE5.6 kmh ENE 4.6 mph7.4 kmh 30.20 in1022.7 mb - 0.00 in0.0 mm 0.00 in0.0 mm
04:00 AM 40.5°F4.7°C 36.9°F2.7°C 87% 3.5 mph ENE5.6 kmh ENE 4.6 mph7.4 kmh 30.20 in1022.7 mb - 0.00 in0.0 mm 0.00 in0.0 mm
04:05 AM 40.4°F4.7°C 36.8°F2.7°C 87% 3.5 mph NE5.6 kmh NE 4.6 mph7.4 kmh 30.20 in1022.7 mb - 0.00 in0.0 mm 0.00 in0.0 mm
04:10 AM 40.2°F4.6°C 36.9°F2.7°C 88% 3.5 mph ENE5.6 kmh ENE 4.6 mph7.4 kmh 30.20 in1022.7 mb - 0.00 in0.0 mm 0.00 in0.0 mm
04:15 AM 39.9°F4.4°C 36.6°F2.6°C 88% 2.3 mph ENE3.7 kmh ENE 4.6 mph7.4 kmh 30.21 in1023.0 mb - 0.00 in0.0 mm 0.00 in0.0 mm
04:25 AM 39.8°F4.3°C 36.8°F2.7°C 89% 3.5 mph ENE5.6 kmh ENE 4.6 mph7.4 kmh 30.20 in1022.7 mb - 0.00 in0.0 mm 0.00 in0.0 mm
04:30 AM 39.6°F4.2°C 36.6°F2.6°C 89% 2.3 mph ENE3.7 kmh ENE 3.5 mph5.6 kmh 30.21 in1023.0 mb - 0.00 in0.0 mm 0.00 in0.0 mm
04:35 AM 39.6°F4.2°C 36.6°F2.6°C 89% 2.3 mph ENE3.7 kmh ENE 4.6 mph7.4 kmh 30.21 in1023.0 mb - 0.00 in0.0 mm 0.00 in0.0 mm
04:40 AM 39.6°F4.2°C 36.9°F2.7°C 90% 2.3 mph ENE3.7 kmh ENE 3.5 mph5.6 kmh 30.21 in1023.0 mb - 0.00 in0.0 mm 0.00 in0.0 mm
04:45 AM 39.1°F3.9°C 36.5°F2.5°C 90% 2.3 mph ENE3.7 kmh ENE 3.5 mph5.6 kmh 30.21 in1023.0 mb - 0.00 in0.0 mm 0.00 in0.0 mm
04:50 AM 38.9°F3.8°C 36.2°F2.3°C 90% 2.3 mph ENE3.7 kmh ENE 3.5 mph5.6 kmh 30.20 in1022.7 mb - 0.00 in0.0 mm 0.00 in0.0 mm
04:55 AM 38.6°F3.7°C 36.2°F2.3°C 91% 2.3 mph ENE3.7 kmh ENE 3.5 mph5.6 kmh 30.20 in1022.7 mb - 0.00 in0.0 mm 0.00 in0.0 mm
05:00 AM 38.7°F3.7°C 36.3°F2.4°C 91% 2.3 mph ENE3.7 kmh ENE 3.5 mph5.6 kmh 30.20 in1022.7 mb - 0.00 in0.0 mm 0.00 in0.0 mm
05:05 AM 38.6°F3.7°C 36.5°F2.5°C 92% 1.2 mph ENE1.9 kmh ENE 2.3 mph3.7 kmh 30.21 in1023.0 mb - 0.00 in0.0 mm 0.00 in0.0 mm
05:10 AM 38.3°F3.5°C 35.9°F2.2°C 91% 1.2 mph ENE1.9 kmh ENE 2.3 mph3.7 kmh 30.21 in1023.0 mb - 0.00 in0.0 mm 0.00 in0.0 mm
05:15 AM 38.2°F3.4°C 36.0°F2.2°C 92% 1.2 mph ENE1.9 kmh ENE 2.3 mph3.7 kmh 30.21 in1023.0 mb - 0.00 in0.0 mm 0.00 in0.0 mm
05:20 AM 37.9°F3.3°C 35.8°F2.1°C 92% Calm Calm -- 30.21 in1023.0 mb - 0.00 in0.0 mm 0.00 in0.0 mm
05:25 AM 37.6°F3.1°C 35.5°F1.9°C 92% 1.2 mph ENE1.9 kmh ENE 2.3 mph3.7 kmh 30.20 in1022.7 mb - 0.00 in0.0 mm 0.00 in0.0 mm
05:30 AM 37.5°F3.1°C 35.4°F1.9°C 92% 2.3 mph ENE3.7 kmh ENE 3.5 mph5.6 kmh 30.20 in1022.7 mb - 0.00 in0.0 mm 0.00 in0.0 mm
05:35 AM 37.3°F2.9°C 35.5°F1.9°C 93% 2.3 mph NE3.7 kmh NE 3.5 mph5.6 kmh 30.20 in1022.7 mb - 0.00 in0.0 mm 0.00 in0.0 mm
05:40 AM 37.5°F3.1°C 35.7°F2.1°C 93% 3.5 mph ENE5.6 kmh ENE 3.5 mph5.6 kmh 30.20 in1022.7 mb - 0.00 in0.0 mm 0.00 in0.0 mm
05:45 AM 37.7°F3.2°C 35.8°F2.1°C 93% 3.5 mph ENE5.6 kmh ENE 4.6 mph7.4 kmh 30.20 in1022.7 mb - 0.00 in0.0 mm 0.00 in0.0 mm
05:50 AM 37.8°F3.2°C 35.9°F2.2°C 93% 2.3 mph ENE3.7 kmh ENE 4.6 mph7.4 kmh 30.20 in1022.7 mb - 0.00 in0.0 mm 0.00 in0.0 mm
05:55 AM 37.8°F3.2°C 36.0°F2.2°C 93% 3.5 mph ENE5.6 kmh ENE 5.8 mph9.3 kmh 30.20 in1022.7 mb - 0.00 in0.0 mm 0.00 in0.0 mm
06:00 AM 37.9°F3.3°C 36.1°F2.3°C 93% 3.5 mph E5.6 kmh E 6.9 mph11.1 kmh 30.19 in1022.4 mb - 0.00 in0.0 mm 0.00 in0.0 mm
06:05 AM 38.1°F3.4°C 36.2°F2.3°C 93% 3.5 mph ENE5.6 kmh ENE 5.8 mph9.3 kmh 30.19 in1022.4 mb - 0.00 in0.0 mm 0.00 in0.0 mm
06:10 AM 38.2°F3.4°C 36.3°F2.4°C 93% 4.6 mph ENE7.4 kmh ENE 8.1 mph13.0 kmh 30.19 in1022.4 mb - 0.00 in0.0 mm 0.00 in0.0 mm
06:15 AM 38.2°F3.4°C 36.4°F2.4°C 93% 3.5 mph ENE5.6 kmh ENE 4.6 mph7.4 kmh 30.19 in1022.4 mb - 0.00 in0.0 mm 0.00 in0.0 mm
06:20 AM 38.2°F3.4°C 36.4°F2.4°C 93% 3.5 mph ENE5.6 kmh ENE 5.8 mph9.3 kmh 30.19 in1022.4 mb - 0.00 in0.0 mm 0.00 in0.0 mm
06:25 AM 38.2°F3.4°C 36.3°F2.4°C 93% 4.6 mph ENE7.4 kmh ENE 8.1 mph13.0 kmh 30.19 in1022.4 mb - 0.00 in0.0 mm 0.00 in0.0 mm
06:30 AM 38.1°F3.4°C 36.3°F2.4°C 93% 4.6 mph ENE7.4 kmh ENE 6.9 mph11.1 kmh 30.20 in1022.7 mb - 0.00 in0.0 mm 0.00 in0.0 mm
06:35 AM 38.2°F3.4°C 36.6°F2.6°C 94% 4.6 mph ENE7.4 kmh ENE 6.9 mph11.1 kmh 30.20 in1022.7 mb - 0.00 in0.0 mm 0.00 in0.0 mm
06:40 AM 38.3°F3.5°C 36.7°F2.6°C 94% 3.5 mph ENE5.6 kmh ENE 6.9 mph11.1 kmh 30.20 in1022.7 mb - 0.00 in0.0 mm 0.00 in0.0 mm
06:45 AM 38.2°F3.4°C 36.7°F2.6°C 94% 4.6 mph ENE7.4 kmh ENE 8.1 mph13.0 kmh 30.20 in1022.7 mb - 0.00 in0.0 mm 0.00 in0.0 mm
06:50 AM 38.2°F3.4°C 36.6°F2.6°C 94% 4.6 mph E7.4 kmh E 5.8 mph9.3 kmh 30.20 in1022.7 mb - 0.00 in0.0 mm 0.00 in0.0 mm
06:55 AM 38.2°F3.4°C 36.6°F2.6°C 94% 4.6 mph E7.4 kmh E 6.9 mph11.1 kmh 30.20 in1022.7 mb - 0.00 in0.0 mm 0.00 in0.0 mm
07:00 AM 38.1°F3.4°C 36.5°F2.5°C 94% 3.5 mph ENE5.6 kmh ENE 4.6 mph7.4 kmh 30.20 in1022.7 mb - 0.00 in0.0 mm 0.00 in0.0 mm
07:05 AM 38.1°F3.4°C 36.6°F2.6°C 94% 3.5 mph ENE5.6 kmh ENE 4.6 mph7.4 kmh 30.20 in1022.7 mb - 0.00 in0.0 mm 0.00 in0.0 mm
07:10 AM 38.1°F3.4°C 36.5°F2.5°C 94% 4.6 mph NE7.4 kmh NE 5.8 mph9.3 kmh 30.20 in1022.7 mb - 0.00 in0.0 mm 0.00 in0.0 mm
07:15 AM 38.0°F3.3°C 36.4°F2.4°C 94% 3.5 mph E5.6 kmh E 5.8 mph9.3 kmh 30.20 in1022.7 mb - 0.00 in0.0 mm 0.00 in0.0 mm
07:20 AM 37.9°F3.3°C 36.4°F2.4°C 94% 3.5 mph ENE5.6 kmh ENE 4.6 mph7.4 kmh 30.20 in1022.7 mb - 0.00 in0.0 mm 0.00 in0.0 mm
07:25 AM 37.9°F3.3°C 36.6°F2.6°C 95% 3.5 mph E5.6 kmh E 4.6 mph7.4 kmh 30.20 in1022.7 mb - 0.00 in0.0 mm 0.00 in0.0 mm
07:30 AM 37.8°F3.2°C 36.5°F2.5°C 95% 3.5 mph E5.6 kmh E 5.8 mph9.3 kmh 30.20 in1022.7 mb - 0.00 in0.0 mm 0.00 in0.0 mm
07:35 AM 38.0°F3.3°C 36.7°F2.6°C 95% 4.6 mph E7.4 kmh E 8.1 mph13.0 kmh 30.20 in1022.7 mb - 0.00 in0.0 mm 0.00 in0.0 mm
07:40 AM 38.2°F3.4°C 36.9°F2.7°C 95% 2.3 mph E3.7 kmh E 4.6 mph7.4 kmh 30.20 in1022.7 mb - 0.00 in0.0 mm 0.00 in0.0 mm
07:45 AM 38.4°F3.6°C 37.1°F2.8°C 95% 2.3 mph E3.7 kmh E 3.5 mph5.6 kmh 30.20 in1022.7 mb - 0.00 in0.0 mm 0.00 in0.0 mm
07:50 AM 38.5°F3.6°C 37.2°F2.9°C 95% 3.5 mph E5.6 kmh E 6.9 mph11.1 kmh 30.20 in1022.7 mb - 0.00 in0.0 mm 0.00 in0.0 mm
07:55 AM 38.5°F3.6°C 37.2°F2.9°C 95% 3.5 mph E5.6 kmh E 4.6 mph7.4 kmh 30.20 in1022.7 mb - 0.00 in0.0 mm 0.00 in0.0 mm
08:00 AM 38.6°F3.7°C 37.3°F2.9°C 95% 2.3 mph E3.7 kmh E 4.6 mph7.4 kmh 30.20 in1022.7 mb - 0.00 in0.0 mm 0.00 in0.0 mm
08:05 AM 38.7°F3.7°C 37.7°F3.2°C 96% 4.6 mph E7.4 kmh E 6.9 mph11.1 kmh 30.20 in1022.7 mb - 0.00 in0.0 mm 0.00 in0.0 mm
08:10 AM 38.9°F3.8°C 37.8°F3.2°C 96% 3.5 mph E5.6 kmh E 6.9 mph11.1 kmh 30.21 in1023.0 mb - 0.00 in0.0 mm 0.00 in0.0 mm
08:15 AM 39.0°F3.9°C 38.0°F3.3°C 96% 3.5 mph E5.6 kmh E 4.6 mph7.4 kmh 30.20 in1022.7 mb - 0.00 in0.0 mm 0.00 in0.0 mm
08:20 AM 39.2°F4.0°C 38.1°F3.4°C 96% 5.8 mph E9.3 kmh E 8.1 mph13.0 kmh 30.20 in1022.7 mb - 0.00 in0.0 mm 0.00 in0.0 mm
08:25 AM 39.3°F4.1°C 38.2°F3.4°C 96% 4.6 mph ENE7.4 kmh ENE 8.1 mph13.0 kmh 30.20 in1022.7 mb - 0.00 in0.0 mm 0.00 in0.0 mm
08:30 AM 39.4°F4.1°C 38.3°F3.5°C 96% 6.9 mph E11.1 kmh E 8.1 mph13.0 kmh 30.20 in1022.7 mb - 0.00 in0.0 mm 0.00 in0.0 mm
08:35 AM 39.5°F4.2°C 38.7°F3.7°C 97% 4.6 mph E7.4 kmh E 4.6 mph7.4 kmh 30.20 in1022.7 mb - 0.00 in0.0 mm 0.00 in0.0 mm
08:40 AM 39.7°F4.3°C 38.7°F3.7°C 96% 4.6 mph E7.4 kmh E 11.5 mph18.5 kmh 30.19 in1022.4 mb - 0.00 in0.0 mm 0.00 in0.0 mm
08:45 AM 40.0°F4.4°C 39.2°F4.0°C 97% 3.5 mph E5.6 kmh E 9.2 mph14.8 kmh 30.19 in1022.4 mb - 0.00 in0.0 mm 0.00 in0.0 mm
08:50 AM 40.2°F4.6°C 39.4°F4.1°C 97% 4.6 mph E7.4 kmh E 5.8 mph9.3 kmh 30.19 in1022.4 mb - 0.00 in0.0 mm 0.00 in0.0 mm
08:55 AM 40.3°F4.6°C 39.5°F4.2°C 97% 5.8 mph E9.3 kmh E 9.2 mph14.8 kmh 30.19 in1022.4 mb - 0.00 in0.0 mm 0.00 in0.0 mm
09:00 AM 40.4°F4.7°C 39.6°F4.2°C 97% 8.1 mph E13.0 kmh E 12.7 mph20.4 kmh 30.20 in1022.7 mb - 0.00 in0.0 mm 0.00 in0.0 mm
09:05 AM 40.4°F4.7°C 39.6°F4.2°C 97% 6.9 mph E11.1 kmh E 9.2 mph14.8 kmh 30.20 in1022.7 mb - 0.00 in0.0 mm 0.00 in0.0 mm
09:10 AM 40.5°F4.7°C 39.7°F4.3°C 97% 4.6 mph ESE7.4 kmh ESE 8.1 mph13.0 kmh 30.20 in1022.7 mb - 0.00 in0.0 mm 0.00 in0.0 mm
09:15 AM 40.5°F4.7°C 39.7°F4.3°C 97% 2.3 mph E3.7 kmh E 5.8 mph9.3 kmh 30.21 in1023.0 mb - 0.00 in0.0 mm 0.00 in0.0 mm
09:20 AM 40.7°F4.8°C 39.9°F4.4°C 97% 3.5 mph SE5.6 kmh SE 6.9 mph11.1 kmh 30.21 in1023.0 mb - 0.00 in0.0 mm 0.00 in0.0 mm
09:25 AM 40.7°F4.8°C 39.9°F4.4°C 97% 4.6 mph E7.4 kmh E 6.9 mph11.1 kmh 30.21 in1023.0 mb - 0.00 in0.0 mm 0.00 in0.0 mm
09:30 AM 40.7°F4.8°C 39.9°F4.4°C 97% 2.3 mph SE3.7 kmh SE 6.9 mph11.1 kmh 30.21 in1023.0 mb - 0.00 in0.0 mm 0.00 in0.0 mm
09:35 AM 40.9°F4.9°C 40.1°F4.5°C 97% 2.3 mph SE3.7 kmh SE 6.9 mph11.1 kmh 30.21 in1023.0 mb - 0.00 in0.0 mm 0.00 in0.0 mm
09:40 AM 40.8°F4.9°C 40.0°F4.4°C 97% 3.5 mph SE5.6 kmh SE 4.6 mph7.4 kmh 30.21 in1023.0 mb - 0.00 in0.0 mm 0.00 in0.0 mm
09:45 AM 40.9°F4.9°C 40.1°F4.5°C 97% 2.3 mph SSE3.7 kmh SSE 2.3 mph3.7 kmh 30.22 in1023.4 mb - 0.00 in0.0 mm 0.00 in0.0 mm
09:50 AM 40.8°F4.9°C 40.0°F4.4°C 97% 2.3 mph SE3.7 kmh SE 3.5 mph5.6 kmh 30.22 in1023.4 mb - 0.00 in0.0 mm 0.00 in0.0 mm
09:55 AM 40.9°F4.9°C 40.1°F4.5°C 97% 2.3 mph E3.7 kmh E 3.5 mph5.6 kmh 30.22 in1023.4 mb - 0.00 in0.0 mm 0.00 in0.0 mm
10:00 AM 41.1°F5.1°C 40.3°F4.6°C 97% 2.3 mph SE3.7 kmh SE 4.6 mph7.4 kmh 30.22 in1023.4 mb - 0.00 in0.0 mm 0.00 in0.0 mm
10:05 AM 41.0°F5.0°C 40.2°F4.6°C 97% 3.5 mph SE5.6 kmh SE 4.6 mph7.4 kmh 30.21 in1023.0 mb - 0.00 in0.0 mm 0.00 in0.0 mm
10:10 AM 41.0°F5.0°C 40.2°F4.6°C 97% 3.5 mph ESE5.6 kmh ESE 4.6 mph7.4 kmh 30.21 in1023.0 mb - 0.00 in0.0 mm 0.00 in0.0 mm
10:15 AM 41.0°F5.0°C 40.5°F4.7°C 98% 3.5 mph ESE5.6 kmh ESE 4.6 mph7.4 kmh 30.21 in1023.0 mb - 0.00 in0.0 mm 0.00 in0.0 mm
10:20 AM 41.1°F5.1°C 40.6°F4.8°C 98% 2.3 mph SE3.7 kmh SE 2.3 mph3.7 kmh 30.21 in1023.0 mb - 0.00 in0.0 mm 0.00 in0.0 mm
10:25 AM 41.3°F5.2°C 40.5°F4.7°C 97% 5.8 mph E9.3 kmh E 9.2 mph14.8 kmh 30.21 in1023.0 mb - 0.00 in0.0 mm 0.00 in0.0 mm
10:30 AM 41.3°F5.2°C 40.8°F4.9°C 98% 3.5 mph ESE5.6 kmh ESE 4.6 mph7.4 kmh 30.20 in1022.7 mb - 0.00 in0.0 mm 0.00 in0.0 mm
10:35 AM 41.5°F5.3°C 41.0°F5.0°C 98% 4.6 mph E7.4 kmh E 6.9 mph11.1 kmh 30.20 in1022.7 mb - 0.00 in0.0 mm 0.00 in0.0 mm
10:40 AM 41.5°F5.3°C 40.9°F4.9°C 98% 3.5 mph ESE5.6 kmh ESE 6.9 mph11.1 kmh 30.20 in1022.7 mb - 0.00 in0.0 mm 0.00 in0.0 mm
10:45 AM 41.3°F5.2°C 40.8°F4.9°C 98% 5.8 mph E9.3 kmh E 8.1 mph13.0 kmh 30.20 in1022.7 mb - 0.00 in0.0 mm 0.00 in0.0 mm
10:50 AM 41.4°F5.2°C 40.9°F4.9°C 98% 4.6 mph E7.4 kmh E 8.1 mph13.0 kmh 30.20 in1022.7 mb - 0.00 in0.0 mm 0.00 in0.0 mm
10:55 AM 41.5°F5.3°C 41.0°F5.0°C 98% 6.9 mph E11.1 kmh E 11.5 mph18.5 kmh 30.19 in1022.4 mb - 0.00 in0.0 mm 0.00 in0.0 mm
11:00 AM 41.6°F5.3°C 41.1°F5.1°C 98% 5.8 mph ENE9.3 kmh ENE 6.9 mph11.1 kmh 30.19 in1022.4 mb - 0.00 in0.0 mm 0.00 in0.0 mm
11:05 AM 41.6°F5.3°C 41.1°F5.1°C 98% 2.3 mph E3.7 kmh E 6.9 mph11.1 kmh 30.20 in1022.7 mb - 0.00 in0.0 mm 0.00 in0.0 mm
11:10 AM 41.7°F5.4°C 41.2°F5.1°C 98% 6.9 mph ESE11.1 kmh ESE 10.4 mph16.7 kmh 30.20 in1022.7 mb - 0.00 in0.0 mm 0.00 in0.0 mm
11:15 AM 41.8°F5.4°C 41.3°F5.2°C 98% 5.8 mph SE9.3 kmh SE 8.1 mph13.0 kmh 30.21 in1023.0 mb - 0.00 in0.0 mm 0.00 in0.0 mm
11:20 AM 42.0°F5.6°C 41.4°F5.2°C 98% 2.3 mph ESE3.7 kmh ESE 4.6 mph7.4 kmh 30.21 in1023.0 mb - 0.00 in0.0 mm 0.00 in0.0 mm
11:25 AM 42.0°F5.6°C 41.5°F5.3°C 98% 3.5 mph SE5.6 kmh SE 6.9 mph11.1 kmh 30.21 in1023.0 mb - 0.00 in0.0 mm 0.00 in0.0 mm
11:30 AM 42.2°F5.7°C 41.7°F5.4°C 98% 3.5 mph SE5.6 kmh SE 6.9 mph11.1 kmh 30.21 in1023.0 mb - 0.00 in0.0 mm 0.00 in0.0 mm
11:35 AM 42.4°F5.8°C 41.8°F5.4°C 98% 2.3 mph S3.7 kmh S 5.8 mph9.3 kmh 30.22 in1023.4 mb - 0.00 in0.0 mm 0.00 in0.0 mm
11:40 AM 42.0°F5.6°C 41.5°F5.3°C 98% 4.6 mph E7.4 kmh E 6.9 mph11.1 kmh 30.22 in1023.4 mb - 0.00 in0.0 mm 0.00 in0.0 mm
11:45 AM 41.9°F5.5°C 41.4°F5.2°C 98% 2.3 mph ENE3.7 kmh ENE 4.6 mph7.4 kmh 30.22 in1023.4 mb - 0.00 in0.0 mm 0.00 in0.0 mm
11:50 AM 42.1°F5.6°C 41.6°F5.3°C 98% 2.3 mph ESE3.7 kmh ESE 4.6 mph7.4 kmh 30.22 in1023.4 mb - 0.00 in0.0 mm 0.00 in0.0 mm
11:55 AM 42.0°F5.6°C 41.5°F5.3°C 98% 2.3 mph E3.7 kmh E 2.3 mph3.7 kmh 30.23 in1023.7 mb - 0.00 in0.0 mm 0.00 in0.0 mm
12:00 PM 42.0°F5.6°C 41.5°F5.3°C 98% 2.3 mph E3.7 kmh E 4.6 mph7.4 kmh 30.22 in1023.4 mb - 0.00 in0.0 mm 0.00 in0.0 mm
12:05 PM 42.2°F5.7°C 41.6°F5.3°C 98% 1.2 mph E1.9 kmh E 3.5 mph5.6 kmh 30.22 in1023.4 mb - 0.00 in0.0 mm 0.00 in0.0 mm
12:10 PM 42.3°F5.7°C 41.8°F5.4°C 98% 2.3 mph E3.7 kmh E 4.6 mph7.4 kmh 30.22 in1023.4 mb - 0.00 in0.0 mm 0.00 in0.0 mm
12:15 PM 42.9°F6.1°C 42.4°F5.8°C 98% 3.5 mph SE5.6 kmh SE 3.5 mph5.6 kmh 30.22 in1023.4 mb - 0.00 in0.0 mm 0.00 in0.0 mm
12:20 PM 42.6°F5.9°C 42.0°F5.6°C 98% 2.3 mph SE3.7 kmh SE 4.6 mph7.4 kmh 30.21 in1023.0 mb - 0.00 in0.0 mm 0.00 in0.0 mm
12:25 PM 42.8°F6.0°C 42.3°F5.7°C 98% 2.3 mph ESE3.7 kmh ESE 3.5 mph5.6 kmh 30.21 in1023.0 mb - 0.00 in0.0 mm 0.00 in0.0 mm
12:30 PM 42.7°F5.9°C 42.2°F5.7°C 98% 2.3 mph ESE3.7 kmh ESE 3.5 mph5.6 kmh 30.21 in1023.0 mb - 0.00 in0.0 mm 0.00 in0.0 mm
12:35 PM 42.6°F5.9°C 42.1°F5.6°C 98% 1.2 mph ESE1.9 kmh ESE 3.5 mph5.6 kmh 30.21 in1023.0 mb - 0.00 in0.0 mm 0.00 in0.0 mm
12:40 PM 42.8°F6.0°C 42.3°F5.7°C 98% 4.6 mph E7.4 kmh E 5.8 mph9.3 kmh 30.20 in1022.7 mb - 0.00 in0.0 mm 0.00 in0.0 mm
12:45 PM 42.9°F6.1°C 42.4°F5.8°C 98% 3.5 mph E5.6 kmh E 3.5 mph5.6 kmh 30.20 in1022.7 mb - 0.00 in0.0 mm 0.00 in0.0 mm
12:50 PM 43.3°F6.3°C 42.8°F6.0°C 98% 2.3 mph ESE3.7 kmh ESE 4.6 mph7.4 kmh 30.20 in1022.7 mb - 0.00 in0.0 mm 0.00 in0.0 mm
12:55 PM 43.1°F6.2°C 42.6°F5.9°C 98% 5.8 mph E9.3 kmh E 8.1 mph13.0 kmh 30.19 in1022.4 mb - 0.00 in0.0 mm 0.00 in0.0 mm
01:00 PM 43.2°F6.2°C 42.6°F5.9°C 98% 3.5 mph ENE5.6 kmh ENE 4.6 mph7.4 kmh 30.19 in1022.4 mb - 0.00 in0.0 mm 0.00 in0.0 mm
01:05 PM 43.3°F6.3°C 42.7°F5.9°C 98% 4.6 mph E7.4 kmh E 6.9 mph11.1 kmh 30.19 in1022.4 mb - 0.00 in0.0 mm 0.00 in0.0 mm
01:10 PM 43.5°F6.4°C 43.0°F6.1°C 98% 3.5 mph E5.6 kmh E 4.6 mph7.4 kmh 30.19 in1022.4 mb - 0.00 in0.0 mm 0.00 in0.0 mm
01:15 PM 43.4°F6.3°C 42.9°F6.1°C 98% 3.5 mph E5.6 kmh E 6.9 mph11.1 kmh 30.18 in1022.0 mb - 0.00 in0.0 mm 0.00 in0.0 mm
01:20 PM 43.8°F6.6°C 43.0°F6.1°C 97% 4.6 mph ENE7.4 kmh ENE 6.9 mph11.1 kmh 30.18 in1022.0 mb - 0.00 in0.0 mm 0.00 in0.0 mm
01:25 PM 43.7°F6.5°C 42.9°F6.1°C 97% 5.8 mph E9.3 kmh E 9.2 mph14.8 kmh 30.18 in1022.0 mb - 0.00 in0.0 mm 0.00 in0.0 mm
01:30 PM 44.0°F6.7°C 42.9°F6.1°C 96% 4.6 mph SE7.4 kmh SE 4.6 mph7.4 kmh 30.17 in1021.7 mb - 0.00 in0.0 mm 0.00 in0.0 mm
01:35 PM 44.7°F7.1°C 43.6°F6.4°C 96% 3.5 mph ESE5.6 kmh ESE 8.1 mph13.0 kmh 30.16 in1021.3 mb - 0.00 in0.0 mm 0.00 in0.0 mm
01:40 PM 45.0°F7.2°C 43.3°F6.3°C 94% 5.8 mph E9.3 kmh E 8.1 mph13.0 kmh 30.15 in1021.0 mb - 0.00 in0.0 mm 0.00 in0.0 mm
01:45 PM 44.5°F6.9°C 42.6°F5.9°C 93% 4.6 mph ENE7.4 kmh ENE 6.9 mph11.1 kmh 30.15 in1021.0 mb - 0.00 in0.0 mm 0.00 in0.0 mm
01:50 PM 44.7°F7.1°C 42.8°F6.0°C 93% 4.6 mph E7.4 kmh E 9.2 mph14.8 kmh 30.15 in1021.0 mb - 0.00 in0.0 mm 0.00 in0.0 mm
01:55 PM 45.2°F7.3°C 43.0°F6.1°C 92% 4.6 mph ESE7.4 kmh ESE 6.9 mph11.1 kmh 30.14 in1020.7 mb - 0.00 in0.0 mm 0.00 in0.0 mm
02:00 PM 45.8°F7.7°C 43.3°F6.3°C 91% 4.6 mph E7.4 kmh E 6.9 mph11.1 kmh 30.14 in1020.7 mb - 0.00 in0.0 mm 0.00 in0.0 mm
02:05 PM 45.3°F7.4°C 42.5°F5.8°C 90% 5.8 mph E9.3 kmh E 9.2 mph14.8 kmh 30.14 in1020.7 mb - 0.00 in0.0 mm 0.00 in0.0 mm
02:10 PM 45.2°F7.3°C 42.7°F5.9°C 91% 5.8 mph SE9.3 kmh SE 6.9 mph11.1 kmh 30.13 in1020.3 mb - 0.00 in0.0 mm 0.00 in0.0 mm
02:15 PM 45.3°F7.4°C 42.8°F6.0°C 91% 3.5 mph E5.6 kmh E 8.1 mph13.0 kmh 30.13 in1020.3 mb - 0.00 in0.0 mm 0.00 in0.0 mm
02:20 PM 45.0°F7.2°C 42.6°F5.9°C 91% 6.9 mph E11.1 kmh E 8.1 mph13.0 kmh 30.13 in1020.3 mb - 0.00 in0.0 mm 0.00 in0.0 mm
02:25 PM 44.8°F7.1°C 42.3°F5.7°C 91% 6.9 mph E11.1 kmh E 9.2 mph14.8 kmh 30.12 in1020.0 mb - 0.00 in0.0 mm 0.00 in0.0 mm
02:30 PM 45.6°F7.6°C 43.1°F6.2°C 91% 3.5 mph ESE5.6 kmh ESE 4.6 mph7.4 kmh 30.12 in1020.0 mb - 0.00 in0.0 mm 0.00 in0.0 mm
02:35 PM 46.0°F7.8°C 43.3°F6.3°C 90% 5.8 mph SE9.3 kmh SE 9.2 mph14.8 kmh 30.12 in1020.0 mb - 0.00 in0.0 mm 0.00 in0.0 mm
02:40 PM 45.9°F7.7°C 42.9°F6.1°C 89% 3.5 mph SE5.6 kmh SE 6.9 mph11.1 kmh 30.11 in1019.6 mb - 0.00 in0.0 mm 0.00 in0.0 mm
02:45 PM 45.7°F7.6°C 42.7°F5.9°C 89% 5.8 mph E9.3 kmh E 8.1 mph13.0 kmh 30.11 in1019.6 mb - 0.00 in0.0 mm 0.00 in0.0 mm
02:50 PM 45.8°F7.7°C 42.7°F5.9°C 89% 8.1 mph SE13.0 kmh SE 11.5 mph18.5 kmh 30.11 in1019.6 mb - 0.00 in0.0 mm 0.00 in0.0 mm
02:55 PM 46.3°F7.9°C 43.2°F6.2°C 89% 3.5 mph SE5.6 kmh SE 4.6 mph7.4 kmh 30.11 in1019.6 mb - 0.00 in0.0 mm 0.00 in0.0 mm
03:00 PM 46.2°F7.9°C 42.9°F6.1°C 88% 5.8 mph E9.3 kmh E 9.2 mph14.8 kmh 30.10 in1019.3 mb - 0.00 in0.0 mm 0.00 in0.0 mm
03:05 PM 46.2°F7.9°C 42.8°F6.0°C 88% 5.8 mph SE9.3 kmh SE 10.4 mph16.7 kmh 30.10 in1019.3 mb - 0.00 in0.0 mm 0.00 in0.0 mm
03:10 PM 46.8°F8.2°C 43.1°F6.2°C 87% 6.9 mph E11.1 kmh E 9.2 mph14.8 kmh 30.10 in1019.3 mb - 0.00 in0.0 mm 0.00 in0.0 mm
03:15 PM 46.6°F8.1°C 43.3°F6.3°C 88% 4.6 mph E7.4 kmh E 9.2 mph14.8 kmh 30.09 in1019.0 mb - 0.00 in0.0 mm 0.00 in0.0 mm
03:20 PM 46.5°F8.1°C 42.8°F6.0°C 87% 6.9 mph ESE11.1 kmh ESE 9.2 mph14.8 kmh 30.09 in1019.0 mb - 0.00 in0.0 mm 0.00 in0.0 mm
03:25 PM 46.8°F8.2°C 43.2°F6.2°C 87% 4.6 mph E7.4 kmh E 10.4 mph16.7 kmh 30.09 in1019.0 mb - 0.00 in0.0 mm 0.00 in0.0 mm
03:30 PM 47.2°F8.4°C 43.5°F6.4°C 87% 6.9 mph E11.1 kmh E 9.2 mph14.8 kmh 30.09 in1019.0 mb - 0.00 in0.0 mm 0.00 in0.0 mm
03:35 PM 47.5°F8.6°C 43.5°F6.4°C 86% 6.9 mph ESE11.1 kmh ESE 8.1 mph13.0 kmh 30.09 in1019.0 mb - 0.00 in0.0 mm 0.00 in0.0 mm
03:40 PM 47.6°F8.7°C 43.3°F6.3°C 85% 5.8 mph E9.3 kmh E 10.4 mph16.7 kmh 30.08 in1018.6 mb - 0.00 in0.0 mm 0.00 in0.0 mm
03:45 PM 47.1°F8.4°C 42.9°F6.1°C 85% 6.9 mph E11.1 kmh E 12.7 mph20.4 kmh 30.08 in1018.6 mb - 0.00 in0.0 mm 0.00 in0.0 mm
03:50 PM 47.2°F8.4°C 43.2°F6.2°C 86% 4.6 mph SE7.4 kmh SE 5.8 mph9.3 kmh 30.08 in1018.6 mb - 0.00 in0.0 mm 0.00 in0.0 mm
03:55 PM 47.8°F8.8°C 42.9°F6.1°C 83% 6.9 mph E11.1 kmh E 11.5 mph18.5 kmh 30.08 in1018.6 mb - 0.00 in0.0 mm 0.00 in0.0 mm
04:00 PM 47.3°F8.5°C 43.0°F6.1°C 85% 6.9 mph ESE11.1 kmh ESE 9.2 mph14.8 kmh 30.08 in1018.6 mb - 0.00 in0.0 mm 0.00 in0.0 mm
04:05 PM 47.3°F8.5°C 43.0°F6.1°C 85% 5.8 mph E9.3 kmh E 11.5 mph18.5 kmh 30.07 in1018.3 mb - 0.00 in0.0 mm 0.00 in0.0 mm
04:10 PM 47.0°F8.3°C 42.7°F5.9°C 85% 6.9 mph E11.1 kmh E 11.5 mph18.5 kmh 30.07 in1018.3 mb - 0.00 in0.0 mm 0.00 in0.0 mm
04:15 PM 47.2°F8.4°C 42.9°F6.1°C 85% 8.1 mph E13.0 kmh E 13.8 mph22.2 kmh 30.07 in1018.3 mb - 0.00 in0.0 mm 0.00 in0.0 mm
04:20 PM 47.6°F8.7°C 43.0°F6.1°C 84% 8.1 mph E13.0 kmh E 12.7 mph20.4 kmh 30.07 in1018.3 mb - 0.00 in0.0 mm 0.00 in0.0 mm
04:25 PM 47.4°F8.6°C 43.1°F6.2°C 85% 8.1 mph E13.0 kmh E 11.5 mph18.5 kmh 30.07 in1018.3 mb - 0.00 in0.0 mm 0.00 in0.0 mm
04:30 PM 47.6°F8.7°C 43.3°F6.3°C 85% 8.1 mph ENE13.0 kmh ENE 12.7 mph20.4 kmh 30.07 in1018.3 mb - 0.00 in0.0 mm 0.00 in0.0 mm
04:35 PM 47.6°F8.7°C 43.0°F6.1°C 84% 8.1 mph E13.0 kmh E 11.5 mph18.5 kmh 30.07 in1018.3 mb - 0.00 in0.0 mm 0.00 in0.0 mm
04:40 PM 47.9°F8.8°C 43.3°F6.3°C 84% 3.5 mph E5.6 kmh E 10.4 mph16.7 kmh 30.07 in1018.3 mb - 0.00 in0.0 mm 0.00 in0.0 mm
04:45 PM 47.8°F8.8°C 43.2°F6.2°C 84% 8.1 mph E13.0 kmh E 11.5 mph18.5 kmh 30.07 in1018.3 mb - 0.00 in0.0 mm 0.00 in0.0 mm
04:50 PM 47.8°F8.8°C 43.2°F6.2°C 84% 5.8 mph SE9.3 kmh SE 8.1 mph13.0 kmh 30.07 in1018.3 mb - 0.00 in0.0 mm 0.00 in0.0 mm
04:55 PM 48.1°F8.9°C 43.5°F6.4°C 84% 5.8 mph E9.3 kmh E 9.2 mph14.8 kmh 30.07 in1018.3 mb - 0.00 in0.0 mm 0.00 in0.0 mm
05:00 PM 48.3°F9.1°C 43.4°F6.3°C 83% 8.1 mph ENE13.0 kmh ENE 12.7 mph20.4 kmh 30.08 in1018.6 mb - 0.00 in0.0 mm 0.00 in0.0 mm
05:05 PM 47.8°F8.8°C 43.2°F6.2°C 84% 5.8 mph E9.3 kmh E 13.8 mph22.2 kmh 30.07 in1018.3 mb - 0.00 in0.0 mm 0.00 in0.0 mm
05:10 PM 47.7°F8.7°C 43.1°F6.2°C 84% 5.8 mph E9.3 kmh E 12.7 mph20.4 kmh 30.07 in1018.3 mb - 0.00 in0.0 mm 0.00 in0.0 mm
05:15 PM 47.6°F8.7°C 43.0°F6.1°C 84% 8.1 mph E13.0 kmh E 15.0 mph24.1 kmh 30.08 in1018.6 mb - 0.00 in0.0 mm 0.00 in0.0 mm
05:20 PM 47.4°F8.6°C 43.1°F6.2°C 85% 9.2 mph ENE14.8 kmh ENE 15.0 mph24.1 kmh 30.08 in1018.6 mb - 0.00 in0.0 mm 0.00 in0.0 mm
05:25 PM 47.3°F8.5°C 43.0°F6.1°C 85% 4.6 mph E7.4 kmh E 9.2 mph14.8 kmh 30.08 in1018.6 mb - 0.00 in0.0 mm 0.00 in0.0 mm
05:30 PM 47.3°F8.5°C 43.0°F6.1°C 85% 5.8 mph E9.3 kmh E 8.1 mph13.0 kmh 30.08 in1018.6 mb - 0.00 in0.0 mm 0.00 in0.0 mm
05:35 PM 47.2°F8.4°C 42.9°F6.1°C 85% 6.9 mph E11.1 kmh E 10.4 mph16.7 kmh 30.08 in1018.6 mb - 0.00 in0.0 mm 0.00 in0.0 mm
05:40 PM 47.0°F8.3°C 42.7°F5.9°C 85% 9.2 mph E14.8 kmh E 11.5 mph18.5 kmh 30.08 in1018.6 mb - 0.00 in0.0 mm 0.00 in0.0 mm
05:45 PM 46.8°F8.2°C 42.9°F6.1°C 86% 9.2 mph E14.8 kmh E 12.7 mph20.4 kmh 30.08 in1018.6 mb - 0.00 in0.0 mm 0.00 in0.0 mm
05:50 PM 46.5°F8.1°C 42.6°F5.9°C 86% 6.9 mph E11.1 kmh E 8.1 mph13.0 kmh 30.07 in1018.3 mb - 0.00 in0.0 mm 0.00 in0.0 mm
05:55 PM 46.5°F8.1°C 42.5°F5.8°C 86% 9.2 mph E14.8 kmh E 11.5 mph18.5 kmh 30.07 in1018.3 mb - 0.00 in0.0 mm 0.00 in0.0 mm
06:00 PM 46.2°F7.9°C 42.5°F5.8°C 87% 6.9 mph E11.1 kmh E 10.4 mph16.7 kmh 30.07 in1018.3 mb - 0.00 in0.0 mm 0.00 in0.0 mm
06:05 PM 46.1°F7.8°C 42.7°F5.9°C 88% 8.1 mph E13.0 kmh E 11.5 mph18.5 kmh 30.07 in1018.3 mb - 0.00 in0.0 mm 0.00 in0.0 mm
06:10 PM 45.9°F7.7°C 42.6°F5.9°C 88% 5.8 mph E9.3 kmh E 11.5 mph18.5 kmh 30.07 in1018.3 mb - 0.00 in0.0 mm 0.00 in0.0 mm
06:15 PM 45.8°F7.7°C 42.4°F5.8°C 88% 5.8 mph E9.3 kmh E 6.9 mph11.1 kmh 30.07 in1018.3 mb - 0.00 in0.0 mm 0.00 in0.0 mm
06:20 PM 45.6°F7.6°C 42.3°F5.7°C 88% 6.9 mph E11.1 kmh E 9.2 mph14.8 kmh 30.07 in1018.3 mb - 0.00 in0.0 mm 0.00 in0.0 mm
06:25 PM 45.5°F7.5°C 42.5°F5.8°C 89% 8.1 mph ESE13.0 kmh ESE 9.2 mph14.8 kmh 30.07 in1018.3 mb - 0.00 in0.0 mm 0.00 in0.0 mm
06:30 PM 45.5°F7.5°C 42.5°F5.8°C 89% 8.1 mph E13.0 kmh E 9.2 mph14.8 kmh 30.07 in1018.3 mb - 0.00 in0.0 mm 0.00 in0.0 mm
06:35 PM 45.5°F7.5°C 42.4°F5.8°C 89% 8.1 mph E13.0 kmh E 12.7 mph20.4 kmh 30.07 in1018.3 mb - 0.00 in0.0 mm 0.00 in0.0 mm
06:40 PM 45.5°F7.5°C 42.4°F5.8°C 89% 8.1 mph E13.0 kmh E 13.8 mph22.2 kmh 30.07 in1018.3 mb - 0.00 in0.0 mm 0.00 in0.0 mm
06:45 PM 45.4°F7.4°C 42.3°F5.7°C 89% 5.8 mph E9.3 kmh E 9.2 mph14.8 kmh 30.07 in1018.3 mb - 0.00 in0.0 mm 0.00 in0.0 mm
06:50 PM 45.4°F7.4°C 42.6°F5.9°C 90% 9.2 mph E14.8 kmh E 16.1 mph25.9 kmh 30.07 in1018.3 mb - 0.00 in0.0 mm 0.00 in0.0 mm
06:55 PM 45.3°F7.4°C 42.6°F5.9°C 90% 6.9 mph E11.1 kmh E 10.4 mph16.7 kmh 30.07 in1018.3 mb - 0.00 in0.0 mm 0.00 in0.0 mm
07:00 PM 45.3°F7.4°C 42.6°F5.9°C 90% 8.1 mph E13.0 kmh E 10.4 mph16.7 kmh 30.06 in1017.9 mb - 0.00 in0.0 mm 0.00 in0.0 mm
07:05 PM 45.3°F7.4°C 42.6°F5.9°C 90% 8.1 mph E13.0 kmh E 15.0 mph24.1 kmh 30.06 in1017.9 mb - 0.00 in0.0 mm 0.00 in0.0 mm
07:10 PM 45.4°F7.4°C 42.6°F5.9°C 90% 6.9 mph E11.1 kmh E 10.4 mph16.7 kmh 30.06 in1017.9 mb - 0.00 in0.0 mm 0.00 in0.0 mm
07:15 PM 45.3°F7.4°C 42.6°F5.9°C 90% 6.9 mph E11.1 kmh E 10.4 mph16.7 kmh 30.06 in1017.9 mb - 0.00 in0.0 mm 0.00 in0.0 mm
07:20 PM 45.3°F7.4°C 42.6°F5.9°C 90% 5.8 mph E9.3 kmh E 6.9 mph11.1 kmh 30.06 in1017.9 mb - 0.00 in0.0 mm 0.00 in0.0 mm
07:25 PM 45.4°F7.4°C 42.6°F5.9°C 90% 6.9 mph E11.1 kmh E 10.4 mph16.7 kmh 30.06 in1017.9 mb - 0.00 in0.0 mm 0.00 in0.0 mm
07:30 PM 45.4°F7.4°C 42.6°F5.9°C 90% 5.8 mph E9.3 kmh E 6.9 mph11.1 kmh 30.06 in1017.9 mb - 0.00 in0.0 mm 0.00 in0.0 mm
07:35 PM 45.3°F7.4°C 42.6°F5.9°C 90% 5.8 mph E9.3 kmh E 8.1 mph13.0 kmh 30.06 in1017.9 mb - 0.00 in0.0 mm 0.00 in0.0 mm
07:40 PM 45.3°F7.4°C 42.5°F5.8°C 90% 5.8 mph E9.3 kmh E 9.2 mph14.8 kmh 30.06 in1017.9 mb - 0.00 in0.0 mm 0.00 in0.0 mm
07:45 PM 45.3°F7.4°C 42.8°F6.0°C 91% 6.9 mph E11.1 kmh E 10.4 mph16.7 kmh 30.07 in1018.3 mb - 0.00 in0.0 mm 0.00 in0.0 mm
07:50 PM 45.3°F7.4°C 42.8°F6.0°C 91% 3.5 mph E5.6 kmh E 8.1 mph13.0 kmh 30.07 in1018.3 mb - 0.00 in0.0 mm 0.00 in0.0 mm
07:55 PM 45.3°F7.4°C 42.8°F6.0°C 91% 4.6 mph ESE7.4 kmh ESE 5.8 mph9.3 kmh 30.07 in1018.3 mb - 0.00 in0.0 mm 0.00 in0.0 mm
08:00 PM 45.4°F7.4°C 42.9°F6.1°C 91% 3.5 mph E5.6 kmh E 5.8 mph9.3 kmh 30.07 in1018.3 mb - 0.00 in0.0 mm 0.00 in0.0 mm
08:05 PM 45.4°F7.4°C 42.6°F5.9°C 90% 5.8 mph ESE9.3 kmh ESE 9.2 mph14.8 kmh 30.07 in1018.3 mb - 0.00 in0.0 mm 0.00 in0.0 mm
08:10 PM 45.4°F7.4°C 42.6°F5.9°C 90% 5.8 mph ESE9.3 kmh ESE 9.2 mph14.8 kmh 30.08 in1018.6 mb - 0.00 in0.0 mm 0.00 in0.0 mm
08:15 PM 45.3°F7.4°C 42.6°F5.9°C 90% 5.8 mph SE9.3 kmh SE 9.2 mph14.8 kmh 30.08 in1018.6 mb - 0.00 in0.0 mm 0.00 in0.0 mm
08:20 PM 45.3°F7.4°C 42.5°F5.8°C 90% 8.1 mph SE13.0 kmh SE 10.4 mph16.7 kmh 30.08 in1018.6 mb - 0.00 in0.0 mm 0.00 in0.0 mm
08:25 PM 45.3°F7.4°C 42.6°F5.9°C 90% 4.6 mph E7.4 kmh E 9.2 mph14.8 kmh 30.07 in1018.3 mb - 0.00 in0.0 mm 0.00 in0.0 mm
08:30 PM 45.4°F7.4°C 42.9°F6.1°C 91% 8.1 mph E13.0 kmh E 12.7 mph20.4 kmh 30.07 in1018.3 mb - 0.00 in0.0 mm 0.00 in0.0 mm
08:35 PM 45.3°F7.4°C 42.8°F6.0°C 91% 8.1 mph SE13.0 kmh SE 10.4 mph16.7 kmh 30.07 in1018.3 mb - 0.00 in0.0 mm 0.00 in0.0 mm
08:40 PM 45.3°F7.4°C 42.8°F6.0°C 91% 4.6 mph ESE7.4 kmh ESE 6.9 mph11.1 kmh 30.07 in1018.3 mb - 0.00 in0.0 mm 0.00 in0.0 mm
08:45 PM 45.3°F7.4°C 42.8°F6.0°C 91% 4.6 mph SE7.4 kmh SE 6.9 mph11.1 kmh 30.07 in1018.3 mb - 0.00 in0.0 mm 0.00 in0.0 mm
08:50 PM 45.3°F7.4°C 42.8°F6.0°C 91% 5.8 mph E9.3 kmh E 11.5 mph18.5 kmh 30.08 in1018.6 mb - 0.00 in0.0 mm 0.00 in0.0 mm
08:55 PM 45.2°F7.3°C 42.7°F5.9°C 91% 6.9 mph E11.1 kmh E 15.0 mph24.1 kmh 30.08 in1018.6 mb - 0.00 in0.0 mm 0.00 in0.0 mm
09:00 PM 45.1°F7.3°C 42.6°F5.9°C 91% 8.1 mph E13.0 kmh E 13.8 mph22.2 kmh 30.07 in1018.3 mb - 0.00 in0.0 mm 0.00 in0.0 mm
09:05 PM 45.0°F7.2°C 42.5°F5.8°C 91% 6.9 mph E11.1 kmh E 9.2 mph14.8 kmh 30.07 in1018.3 mb - 0.00 in0.0 mm 0.00 in0.0 mm
09:10 PM 45.0°F7.2°C 42.5°F5.8°C 91% 4.6 mph E7.4 kmh E 9.2 mph14.8 kmh 30.07 in1018.3 mb - 0.00 in0.0 mm 0.00 in0.0 mm
09:15 PM 45.0°F7.2°C 42.6°F5.9°C 91% 5.8 mph SE9.3 kmh SE 9.2 mph14.8 kmh 30.07 in1018.3 mb - 0.00 in0.0 mm 0.00 in0.0 mm
09:20 PM 45.1°F7.3°C 42.9°F6.1°C 92% 5.8 mph SE9.3 kmh SE 8.1 mph13.0 kmh 30.07 in1018.3 mb - 0.00 in0.0 mm 0.00 in0.0 mm
09:25 PM 45.1°F7.3°C 42.6°F5.9°C 91% 3.5 mph ESE5.6 kmh ESE 4.6 mph7.4 kmh 30.07 in1018.3 mb - 0.00 in0.0 mm 0.00 in0.0 mm
09:30 PM 45.1°F7.3°C 42.6°F5.9°C 91% 4.6 mph ESE7.4 kmh ESE 8.1 mph13.0 kmh 30.07 in1018.3 mb - 0.00 in0.0 mm 0.00 in0.0 mm
09:35 PM 45.1°F7.3°C 42.6°F5.9°C 91% 6.9 mph SE11.1 kmh SE 8.1 mph13.0 kmh 30.07 in1018.3 mb - 0.00 in0.0 mm 0.00 in0.0 mm
09:40 PM 45.0°F7.2°C 42.5°F5.8°C 91% 6.9 mph ESE11.1 kmh ESE 10.4 mph16.7 kmh 30.07 in1018.3 mb - 0.00 in0.0 mm 0.00 in0.0 mm
09:45 PM 45.0°F7.2°C 42.5°F5.8°C 91% 6.9 mph SE11.1 kmh SE 8.1 mph13.0 kmh 30.07 in1018.3 mb - 0.00 in0.0 mm 0.00 in0.0 mm
09:50 PM 44.9°F7.2°C 42.4°F5.8°C 91% 6.9 mph SE11.1 kmh SE 9.2 mph14.8 kmh 30.07 in1018.3 mb - 0.00 in0.0 mm 0.00 in0.0 mm
09:55 PM 44.8°F7.1°C 42.4°F5.8°C 91% 8.1 mph SE13.0 kmh SE 9.2 mph14.8 kmh 30.07 in1018.3 mb - 0.00 in0.0 mm 0.00 in0.0 mm
10:00 PM 44.7°F7.1°C 42.2°F5.7°C 91% 8.1 mph SE13.0 kmh SE 13.8 mph22.2 kmh 30.08 in1018.6 mb - 0.00 in0.0 mm 0.00 in0.0 mm
10:05 PM 44.6°F7.0°C 42.2°F5.7°C 91% 4.6 mph SE7.4 kmh SE 6.9 mph11.1 kmh 30.08 in1018.6 mb - 0.00 in0.0 mm 0.00 in0.0 mm
10:10 PM 44.6°F7.0°C 42.1°F5.6°C 91% 5.8 mph SE9.3 kmh SE 8.1 mph13.0 kmh 30.07 in1018.3 mb - 0.00 in0.0 mm 0.00 in0.0 mm
10:15 PM 44.6°F7.0°C 42.1°F5.6°C 91% 8.1 mph SE13.0 kmh SE 12.7 mph20.4 kmh 30.07 in1018.3 mb - 0.00 in0.0 mm 0.00 in0.0 mm
10:20 PM 44.5°F6.9°C 42.0°F5.6°C 91% 4.6 mph SE7.4 kmh SE 10.4 mph16.7 kmh 30.07 in1018.3 mb - 0.00 in0.0 mm 0.00 in0.0 mm
10:25 PM 44.5°F6.9°C 42.0°F5.6°C 91% 6.9 mph ESE11.1 kmh ESE 10.4 mph16.7 kmh 30.07 in1018.3 mb - 0.00 in0.0 mm 0.00 in0.0 mm
10:30 PM 44.5°F6.9°C 42.3°F5.7°C 92% 5.8 mph ESE9.3 kmh ESE 6.9 mph11.1 kmh 30.07 in1018.3 mb - 0.00 in0.0 mm 0.00 in0.0 mm
10:35 PM 44.5°F6.9°C 42.3°F5.7°C 92% 6.9 mph E11.1 kmh E 10.4 mph16.7 kmh 30.07 in1018.3 mb - 0.00 in0.0 mm 0.00 in0.0 mm
10:40 PM 44.5°F6.9°C 42.3°F5.7°C 92% 4.6 mph SE7.4 kmh SE 4.6 mph7.4 kmh 30.07 in1018.3 mb - 0.00 in0.0 mm 0.00 in0.0 mm
10:45 PM 44.5°F6.9°C 42.3°F5.7°C 92% 8.1 mph E13.0 kmh E 9.2 mph14.8 kmh 30.07 in1018.3 mb - 0.00 in0.0 mm 0.00 in0.0 mm
10:50 PM 44.3°F6.8°C 42.1°F5.6°C 92% 5.8 mph E9.3 kmh E 10.4 mph16.7 kmh 30.06 in1017.9 mb - 0.00 in0.0 mm 0.00 in0.0 mm
10:55 PM 44.2°F6.8°C 42.0°F5.6°C 92% 4.6 mph SE7.4 kmh SE 4.6 mph7.4 kmh 30.06 in1017.9 mb - 0.00 in0.0 mm 0.00 in0.0 mm
11:00 PM 44.1°F6.7°C 41.9°F5.5°C 92% 4.6 mph ESE7.4 kmh ESE 9.2 mph14.8 kmh 30.06 in1017.9 mb - 0.00 in0.0 mm 0.00 in0.0 mm
11:05 PM 44.0°F6.7°C 42.1°F5.6°C 93% 4.6 mph ESE7.4 kmh ESE 6.9 mph11.1 kmh 30.06 in1017.9 mb - 0.00 in0.0 mm 0.00 in0.0 mm
11:10 PM 44.0°F6.7°C 42.1°F5.6°C 93% 6.9 mph ESE11.1 kmh ESE 6.9 mph11.1 kmh 30.06 in1017.9 mb - 0.00 in0.0 mm 0.00 in0.0 mm
11:15 PM 44.1°F6.7°C 42.2°F5.7°C 93% 4.6 mph ESE7.4 kmh ESE 4.6 mph7.4 kmh 30.05 in1017.6 mb - 0.00 in0.0 mm 0.00 in0.0 mm
11:20 PM 44.2°F6.8°C 42.3°F5.7°C 93% 3.5 mph SE5.6 kmh SE 4.6 mph7.4 kmh 30.05 in1017.6 mb - 0.00 in0.0 mm 0.00 in0.0 mm
11:25 PM 44.2°F6.8°C 42.3°F5.7°C 93% 5.8 mph E9.3 kmh E 10.4 mph16.7 kmh 30.06 in1017.9 mb - 0.00 in0.0 mm 0.00 in0.0 mm
11:30 PM 44.2°F6.8°C 42.3°F5.7°C 93% 5.8 mph ESE9.3 kmh ESE 9.2 mph14.8 kmh 30.05 in1017.6 mb - 0.00 in0.0 mm 0.00 in0.0 mm
11:35 PM 44.2°F6.8°C 42.3°F5.7°C 93% 9.2 mph ESE14.8 kmh ESE 11.5 mph18.5 kmh 30.05 in1017.6 mb - 0.00 in0.0 mm 0.00 in0.0 mm
11:40 PM 44.2°F6.8°C 42.3°F5.7°C 93% 8.1 mph ESE13.0 kmh ESE 12.7 mph20.4 kmh 30.06 in1017.9 mb - 0.00 in0.0 mm 0.00 in0.0 mm
11:45 PM 44.2°F6.8°C 42.3°F5.7°C 93% 5.8 mph SE9.3 kmh SE 9.2 mph14.8 kmh 30.06 in1017.9 mb - 0.00 in0.0 mm 0.00 in0.0 mm
11:50 PM 44.2°F6.8°C 42.3°F5.7°C 93% 8.1 mph ESE13.0 kmh ESE 10.4 mph16.7 kmh 30.06 in1017.9 mb - 0.00 in0.0 mm 0.00 in0.0 mm
11:55 PM 44.2°F6.8°C 42.3°F5.7°C 93% 8.1 mph ESE13.0 kmh ESE 9.2 mph14.8 kmh 30.06 in1017.9 mb - 0.00 in0.0 mm 0.00 in0.0 mm